Terminal Aerodrome Forecast
Issued by NWS

Home | Current Version | Previous Version | Graphics & Text | Print | Product List | Glossary On
Versions: 1 2 3 4 5 6 7 8 9 10 11 12 13 14 15 16 17 18 19
000
FTUS43 KICT 241621 AAB
TAFHUT
TAF AMD
KHUT 241621Z 2416/2512 33012KT P6SM OVC015
      TEMPO 2416/2417 5SM BR BKN008 OVC015
     FM241700 32012G18KT P6SM SCT008 BKN015
     FM241800 33018G27KT P6SM SCT030
     FM250000 VRB05KT P6SM SCT250=

USA.gov is the U.S. government's official web portal to all federal, state and local government web resources and services.